createdAt,value
2023-05-20T00:00:57.453Z,47.60
2023-05-20T00:04:14.705Z,47.18
2023-05-20T00:07:32.162Z,46.75
2023-05-20T00:10:49.596Z,45.58
2023-05-20T00:14:06.468Z,50.50
2023-05-20T00:17:23.276Z,58.00
2023-05-20T00:20:40.917Z,47.03
2023-05-20T00:23:59.510Z,48.70
2023-05-20T00:27:16.354Z,52.75
2023-05-20T00:30:33.176Z,41.65
2023-05-20T00:33:50.252Z,57.80
2023-05-20T00:37:07.261Z,46.23
2023-05-20T00:40:26.237Z,52.45
2023-05-20T00:43:43.065Z,48.30
2023-05-20T00:47:01.096Z,43.30
2023-05-20T00:50:20.454Z,46.60
2023-05-20T00:53:37.160Z,44.38
2023-05-20T00:56:53.959Z,51.13
2023-05-20T01:00:15.004Z,54.35
2023-05-20T01:03:32.211Z,46.58
2023-05-20T01:06:49.155Z,48.48
2023-05-20T01:10:06.649Z,51.28
2023-05-20T01:13:28.563Z,49.18
2023-05-20T01:16:46.383Z,47.13
2023-05-20T01:20:08.725Z,38.90
2023-05-20T01:23:25.293Z,36.78
2023-05-20T01:26:41.923Z,48.75
2023-05-20T01:30:01.131Z,42.35
2023-05-20T01:33:21.899Z,43.33
2023-05-20T01:36:42.482Z,43.65
2023-05-20T01:40:01.940Z,40.35
2023-05-20T01:43:19.484Z,41.40
2023-05-20T01:46:40.195Z,42.83
2023-05-20T01:49:57.069Z,41.05
2023-05-20T01:53:14.367Z,45.73
2023-05-20T01:56:31.051Z,44.95
2023-05-20T01:59:48.413Z,42.05
2023-05-20T02:03:05.102Z,42.88
2023-05-20T02:06:22.597Z,51.98
2023-05-20T02:09:39.299Z,60.73
2023-05-20T02:12:56.726Z,57.43
2023-05-20T02:16:14.584Z,56.45
2023-05-20T02:19:32.225Z,68.30
2023-05-20T02:22:49.556Z,65.03
2023-05-20T02:26:06.400Z,58.25
2023-05-20T02:29:25.844Z,55.40
2023-05-20T02:32:43.368Z,54.68
2023-05-20T02:36:00.819Z,54.40
2023-05-20T02:39:20.281Z,61.58
2023-05-20T02:42:36.857Z,55.05
2023-05-20T02:45:53.760Z,55.58
2023-05-20T02:49:10.713Z,53.08
2023-05-20T02:52:28.720Z,51.63
2023-05-20T02:55:48.248Z,45.45
2023-05-20T02:59:05.772Z,47.53
2023-05-20T03:02:24.278Z,43.15
2023-05-20T03:05:43.528Z,48.95
2023-05-20T03:09:00.223Z,45.35
2023-05-20T03:12:17.305Z,50.78
2023-05-20T03:15:34.267Z,46.90
2023-05-20T03:18:51.419Z,45.13
2023-05-20T03:22:08.641Z,45.58
2023-05-20T03:25:25.763Z,51.75
2023-05-20T03:28:42.615Z,40.73
2023-05-20T03:32:01.932Z,46.58
2023-05-20T03:35:20.042Z,43.00
2023-05-20T03:38:38.335Z,43.40
2023-05-20T03:41:55.006Z,39.00
2023-05-20T03:45:12.797Z,44.40
2023-05-20T03:48:33.986Z,43.00
2023-05-20T03:51:50.494Z,39.18
2023-05-20T03:55:07.614Z,48.65
2023-05-20T03:58:26.186Z,39.85
2023-05-20T04:01:42.811Z,40.48
2023-05-20T04:05:03.351Z,37.20
2023-05-20T04:08:20.790Z,35.35
2023-05-20T04:11:37.914Z,31.13
2023-05-20T04:14:56.489Z,35.05
2023-05-20T04:18:14.203Z,44.43
2023-05-20T04:21:31.097Z,33.25
2023-05-20T04:24:48.822Z,35.60
2023-05-20T04:28:06.025Z,32.93
2023-05-20T04:31:26.343Z,34.85
2023-05-20T04:34:43.965Z,34.43
2023-05-20T04:38:01.886Z,30.35
2023-05-20T04:41:19.520Z,30.83
2023-05-20T04:44:39.485Z,38.78
2023-05-20T04:47:57.803Z,36.48
2023-05-20T04:51:14.719Z,33.08
2023-05-20T04:54:33.790Z,37.25
2023-05-20T04:57:50.791Z,36.05
2023-05-20T05:01:07.489Z,36.95
2023-05-20T05:04:24.714Z,44.10
2023-05-20T05:07:41.566Z,34.00
2023-05-20T05:11:00.631Z,35.50
2023-05-20T05:14:17.816Z,33.78
2023-05-20T05:17:34.587Z,41.30
2023-05-20T05:20:53.707Z,38.45
2023-05-20T05:24:10.638Z,42.08
2023-05-20T05:27:27.243Z,41.88
2023-05-20T05:30:44.573Z,38.75
2023-05-20T05:34:04.184Z,37.78
2023-05-20T05:37:21.031Z,42.95
2023-05-20T05:40:41.233Z,41.90
2023-05-20T05:43:58.209Z,39.45
2023-05-20T05:47:18.465Z,43.15
2023-05-20T05:50:36.931Z,49.18
2023-05-20T05:53:54.381Z,41.98
2023-05-20T05:57:13.918Z,44.40
2023-05-20T06:00:30.767Z,43.18
2023-05-20T06:03:47.483Z,41.90
2023-05-20T06:07:07.371Z,43.78
2023-05-20T06:10:25.152Z,45.40
2023-05-20T06:13:41.993Z,42.15
2023-05-20T06:16:59.189Z,43.93
2023-05-20T06:20:18.847Z,44.03
2023-05-20T06:23:35.820Z,43.00
2023-05-20T06:26:55.800Z,50.40
2023-05-20T06:30:20.603Z,49.25
2023-05-20T06:33:53.457Z,50.33
2023-05-20T06:37:17.182Z,43.88
2023-05-20T06:40:34.972Z,48.00
2023-05-20T06:43:53.494Z,49.00
2023-05-20T06:47:20.160Z,42.35
2023-05-20T06:50:38.350Z,41.00
2023-05-20T06:53:55.296Z,44.05
2023-05-20T06:57:12.720Z,48.50
2023-05-20T07:00:30.726Z,48.78
2023-05-20T07:03:50.012Z,37.83
2023-05-20T07:07:07.923Z,39.43
2023-05-20T07:10:26.603Z,40.83
2023-05-20T07:13:43.671Z,38.10
2023-05-20T07:17:07.109Z,33.08
2023-05-20T07:20:28.903Z,36.43
2023-05-20T07:23:49.947Z,33.93
2023-05-20T07:27:07.071Z,37.90
2023-05-20T07:30:24.490Z,35.78
2023-05-20T07:33:43.357Z,40.25
2023-05-20T07:37:00.810Z,30.63
2023-05-20T07:40:21.857Z,33.85
2023-05-20T07:43:39.456Z,36.30
2023-05-20T07:46:56.432Z,34.58
2023-05-20T07:50:15.368Z,35.50
2023-05-20T07:53:32.721Z,36.30
2023-05-20T07:56:49.361Z,37.85
2023-05-20T08:00:07.325Z,35.05
2023-05-20T08:03:27.783Z,36.75
2023-05-20T08:06:49.122Z,29.18
2023-05-20T08:10:09.977Z,34.65
2023-05-20T08:13:32.478Z,32.10
2023-05-20T08:16:54.809Z,38.90
2023-05-20T08:20:13.861Z,34.60
2023-05-20T08:23:31.705Z,29.10
2023-05-20T08:26:49.570Z,38.70
2023-05-20T08:30:09.127Z,37.93
2023-05-20T08:33:28.209Z,43.98
2023-05-20T08:36:46.183Z,34.45
2023-05-20T08:40:11.897Z,56.08
2023-05-20T08:43:40.032Z,42.33
2023-05-20T08:47:01.909Z,39.98
2023-05-20T08:50:23.108Z,43.90
2023-05-20T08:53:40.571Z,38.85
2023-05-20T08:57:03.990Z,41.18
2023-05-20T09:00:26.487Z,45.20
2023-05-20T09:03:44.316Z,42.73
2023-05-20T09:07:01.416Z,34.63
2023-05-20T09:10:22.035Z,47.80
2023-05-20T09:13:40.596Z,45.15
2023-05-20T09:16:58.999Z,42.10
2023-05-20T09:20:20.753Z,36.73
2023-05-20T09:23:42.531Z,36.60
2023-05-20T09:26:59.681Z,41.03
2023-05-20T09:30:20.837Z,36.30
2023-05-20T09:33:40.064Z,45.85
2023-05-20T09:40:18.502Z,39.45
2023-05-20T09:43:36.020Z,40.95
2023-05-20T09:46:55.732Z,42.85
2023-05-20T09:50:17.226Z,44.38
2023-05-20T09:53:35.740Z,51.65
2023-05-20T09:56:54.303Z,43.75
2023-05-20T10:00:14.730Z,38.48
2023-05-20T10:03:36.902Z,43.40
2023-05-20T10:07:15.395Z,39.48
2023-05-20T10:10:42.065Z,36.70
2023-05-20T10:14:34.663Z,36.18
2023-05-20T10:17:57.245Z,43.50
2023-05-20T10:21:23.297Z,36.35
2023-05-20T10:24:46.533Z,40.05
2023-05-20T10:28:15.204Z,36.03
2023-05-20T10:31:36.212Z,29.58
2023-05-20T10:38:21.784Z,35.25
2023-05-20T10:41:39.008Z,37.13
2023-05-20T10:44:56.148Z,30.45
2023-05-20T10:48:13.591Z,37.33
2023-05-20T10:51:32.808Z,54.40
2023-05-20T10:58:09.933Z,31.90
2023-05-20T11:01:29.907Z,33.85
2023-05-20T11:04:47.590Z,31.90
2023-05-20T11:08:27.183Z,29.28
2023-05-20T11:11:31.313Z,29.03
2023-05-20T11:14:48.468Z,27.38
2023-05-20T11:18:08.321Z,32.48
2023-05-20T11:21:26.442Z,30.85
2023-05-20T11:24:43.485Z,30.93
2023-05-20T11:28:00.505Z,32.48
2023-05-20T11:31:18.855Z,30.45
2023-05-20T11:34:40.886Z,29.60
2023-05-20T11:38:04.487Z,35.85
2023-05-20T11:41:22.285Z,28.30
2023-05-20T11:44:39.389Z,35.20
2023-05-20T11:48:08.037Z,40.28
2023-05-20T11:51:24.766Z,36.98
2023-05-20T11:54:45.096Z,29.80
2023-05-20T11:58:04.608Z,26.65
2023-05-20T12:01:23.500Z,27.85
2023-05-20T12:04:41.823Z,29.98
2023-05-20T12:07:58.669Z,38.45
2023-05-20T12:11:15.621Z,33.40
2023-05-20T12:14:32.379Z,30.05
2023-05-20T12:17:57.444Z,29.80
2023-05-20T12:21:14.228Z,33.23
2023-05-20T12:24:31.004Z,22.95
2023-05-20T12:27:49.122Z,28.20
2023-05-20T12:31:05.857Z,29.10
2023-05-20T12:34:22.715Z,26.83
2023-05-20T12:37:39.845Z,24.93
2023-05-20T12:40:56.531Z,26.15
2023-05-20T12:44:14.161Z,22.60
2023-05-20T12:47:31.551Z,23.08
2023-05-20T12:50:48.338Z,22.18
2023-05-20T12:54:05.470Z,22.18
2023-05-20T12:57:22.531Z,42.43
2023-05-20T13:00:39.431Z,31.40
2023-05-20T13:03:56.749Z,23.53
2023-05-20T13:07:13.789Z,22.68
2023-05-20T13:10:30.759Z,22.00
2023-05-20T13:13:47.415Z,19.13
2023-05-20T13:17:04.349Z,19.23
2023-05-20T13:20:22.598Z,17.98
2023-05-20T13:23:39.366Z,19.53
2023-05-20T13:26:56.016Z,20.18
2023-05-20T13:30:14.677Z,18.38
2023-05-20T13:33:31.534Z,21.40
2023-05-20T13:36:48.811Z,17.93
2023-05-20T13:40:05.680Z,18.75
2023-05-20T13:43:22.570Z,20.40
2023-05-20T13:46:39.314Z,20.45
2023-05-20T13:49:56.074Z,63.65
2023-05-20T13:53:14.613Z,28.70
2023-05-20T13:56:31.306Z,18.08
2023-05-20T13:59:48.003Z,18.68
2023-05-20T14:03:05.812Z,17.25
2023-05-20T14:06:22.879Z,17.05
2023-05-20T14:09:39.529Z,37.83
2023-05-20T14:12:56.458Z,15.25
2023-05-20T14:16:13.915Z,14.75
2023-05-20T14:19:30.722Z,17.63
2023-05-20T14:22:47.395Z,24.63
2023-05-20T14:26:04.284Z,16.00
2023-05-20T14:29:20.914Z,17.53
2023-05-20T14:32:38.123Z,13.05
2023-05-20T14:35:55.275Z,15.60
2023-05-20T14:39:13.246Z,19.98
2023-05-20T14:42:30.126Z,15.68
2023-05-20T14:45:47.581Z,13.80
2023-05-20T14:49:04.481Z,34.35
2023-05-20T14:52:21.394Z,22.43
2023-05-20T14:55:38.276Z,14.03
2023-05-20T14:58:55.705Z,16.30
2023-05-20T15:02:15.439Z,16.10
2023-05-20T15:05:31.882Z,14.68
2023-05-20T15:08:48.761Z,14.83
2023-05-20T15:12:05.467Z,13.90
2023-05-20T15:15:22.694Z,14.18
2023-05-20T15:18:40.307Z,16.78
2023-05-20T15:21:57.235Z,13.13
2023-05-20T15:25:15.258Z,18.13
2023-05-20T15:28:32.144Z,9.60
2023-05-20T15:34:52.040Z,19.33
2023-05-20T15:38:08.895Z,13.03
2023-05-20T15:41:26.971Z,15.20
2023-05-20T15:44:43.830Z,11.38
2023-05-20T15:48:00.931Z,11.50
2023-05-20T15:51:18.899Z,14.05
2023-05-20T15:54:35.753Z,9.03
2023-05-20T15:57:52.758Z,9.90
2023-05-20T16:01:09.674Z,9.45
2023-05-20T16:04:27.233Z,11.88
2023-05-20T16:07:44.324Z,10.87
2023-05-20T16:11:00.972Z,12.08
2023-05-20T16:14:17.790Z,12.50
2023-05-20T16:17:35.486Z,10.33
2023-05-20T16:20:52.255Z,11.68
2023-05-20T16:24:10.162Z,9.80
2023-05-20T16:27:26.918Z,15.47
2023-05-20T16:30:44.811Z,15.50
2023-05-20T16:34:02.031Z,7.63
2023-05-20T16:37:19.684Z,13.30
2023-05-20T16:40:36.685Z,8.45
2023-05-20T16:43:53.254Z,12.25
2023-05-20T16:47:10.096Z,10.73
2023-05-20T16:50:27.031Z,12.30
2023-05-20T16:53:44.206Z,12.60
2023-05-20T16:57:00.836Z,8.88
2023-05-20T17:00:21.916Z,8.45
2023-05-20T17:03:40.616Z,13.73
2023-05-20T17:06:57.801Z,12.53
2023-05-20T17:10:16.927Z,12.93
2023-05-20T17:13:33.645Z,9.43
2023-05-20T17:16:50.286Z,11.68
2023-05-20T17:20:07.288Z,15.40
2023-05-20T17:23:24.516Z,13.63
2023-05-20T17:26:41.966Z,10.83
2023-05-20T17:29:59.550Z,15.70
2023-05-20T17:33:16.211Z,10.18
2023-05-20T17:36:33.696Z,11.13
2023-05-20T17:39:52.146Z,72.18
2023-05-20T17:43:08.986Z,12.18
2023-05-20T17:46:25.698Z,11.40
2023-05-20T17:49:42.594Z,9.13
2023-05-20T17:52:59.261Z,14.75
2023-05-20T17:56:16.836Z,8.35
2023-05-20T17:59:34.815Z,11.08
2023-05-20T18:06:07.543Z,13.00
2023-05-20T18:09:26.303Z,8.48
2023-05-20T18:12:43.657Z,9.08
2023-05-20T18:16:00.654Z,10.48
2023-05-20T18:19:17.645Z,9.58
2023-05-20T18:22:34.528Z,11.08
2023-05-20T18:25:51.644Z,9.50
2023-05-20T18:29:08.662Z,10.38
2023-05-20T18:32:27.835Z,7.28
2023-05-20T18:35:58.289Z,13.68
2023-05-20T18:39:16.611Z,12.90
2023-05-20T18:42:33.276Z,12.20
2023-05-20T18:45:50.085Z,9.00
2023-05-20T18:49:06.501Z,12.40
2023-05-20T18:52:23.209Z,14.78
2023-05-20T18:55:39.866Z,7.90
2023-05-20T18:58:56.589Z,7.80
2023-05-20T19:02:15.130Z,12.83
2023-05-20T19:05:32.322Z,12.08
2023-05-20T19:08:50.179Z,9.30
2023-05-20T19:12:07.688Z,10.23
2023-05-20T19:15:26.789Z,9.65
2023-05-20T19:18:43.457Z,11.90
2023-05-20T19:22:00.476Z,11.10
2023-05-20T19:25:18.120Z,12.85
2023-05-20T19:28:34.875Z,16.35
2023-05-20T19:31:54.844Z,13.45
2023-05-20T19:35:12.192Z,9.78
2023-05-20T19:38:28.707Z,12.83
2023-05-20T19:41:45.574Z,15.98
2023-05-20T19:45:02.737Z,11.38
2023-05-20T19:48:21.962Z,12.25
2023-05-20T19:51:38.183Z,13.50
2023-05-20T19:54:56.670Z,14.75
2023-05-20T19:58:13.235Z,13.53
2023-05-20T20:01:35.607Z,25.68
2023-05-20T20:04:53.192Z,15.08
2023-05-20T20:08:10.860Z,14.05
2023-05-20T20:11:29.059Z,11.88
2023-05-20T20:14:45.773Z,13.95
2023-05-20T20:18:02.163Z,12.35
2023-05-20T20:21:18.960Z,16.63
2023-05-20T20:24:36.097Z,14.70
2023-05-20T20:27:52.942Z,12.98
2023-05-20T20:31:10.053Z,12.50
2023-05-20T20:34:26.775Z,14.48
2023-05-20T20:37:45.795Z,11.63
2023-05-20T20:44:21.882Z,13.85
2023-05-20T20:47:39.420Z,18.95
2023-05-20T20:50:57.375Z,12.08
2023-05-20T20:54:15.274Z,14.50
2023-05-20T20:57:35.229Z,10.78
2023-05-20T21:00:52.148Z,15.08
2023-05-20T21:04:10.393Z,14.85
2023-05-20T21:07:27.084Z,16.55
2023-05-20T21:10:43.954Z,15.38
2023-05-20T21:14:00.715Z,15.45
2023-05-20T21:17:17.875Z,18.80
2023-05-20T21:20:36.036Z,13.38
2023-05-20T21:23:55.107Z,16.97
2023-05-20T21:27:12.019Z,13.75
2023-05-20T21:30:28.635Z,14.15
2023-05-20T21:33:45.563Z,16.70
2023-05-20T21:37:02.309Z,14.10
2023-05-20T21:40:21.014Z,12.93
2023-05-20T21:43:38.435Z,17.60
2023-05-20T21:46:55.191Z,13.65
2023-05-20T21:50:14.687Z,15.43
2023-05-20T21:53:31.503Z,13.85
2023-05-20T21:56:48.059Z,13.55
2023-05-20T22:00:05.848Z,17.73
2023-05-20T22:03:22.965Z,16.50
2023-05-20T22:06:40.730Z,16.83
2023-05-20T22:09:58.066Z,16.13
2023-05-20T22:13:16.211Z,21.98
2023-05-20T22:16:32.816Z,18.48
2023-05-20T22:19:50.887Z,20.50
2023-05-20T22:23:08.303Z,17.35
2023-05-20T22:26:26.250Z,17.70
2023-05-20T22:29:43.925Z,18.40
2023-05-20T22:33:01.691Z,13.50
2023-05-20T22:36:19.242Z,15.33
2023-05-20T22:39:37.499Z,22.28
2023-05-20T22:42:54.648Z,15.70
2023-05-20T22:46:11.408Z,16.95
2023-05-20T22:49:29.538Z,15.00
2023-05-20T22:52:46.178Z,16.58
2023-05-20T22:56:03.311Z,16.98
2023-05-20T22:59:20.072Z,14.50
2023-05-20T23:02:36.950Z,19.03
2023-05-20T23:05:53.958Z,12.93
2023-05-20T23:09:10.826Z,14.90
2023-05-20T23:12:28.870Z,17.95
2023-05-20T23:15:47.419Z,22.40
2023-05-20T23:19:04.227Z,17.23
2023-05-20T23:22:21.523Z,16.48
2023-05-20T23:25:39.013Z,20.45
2023-05-20T23:28:56.539Z,16.68
2023-05-20T23:32:14.138Z,16.80
2023-05-20T23:35:30.923Z,16.50
2023-05-20T23:38:48.046Z,21.77
2023-05-20T23:42:04.753Z,17.58
2023-05-20T23:45:22.568Z,15.93
2023-05-20T23:48:39.442Z,19.23
2023-05-20T23:51:57.140Z,21.25
2023-05-20T23:55:15.773Z,16.38
2023-05-20T23:58:32.682Z,24.43
